createdAt,value
2023-04-04T00:06:46.117Z,98154.03
2023-04-04T00:16:48.389Z,98159.34
2023-04-04T00:26:50.918Z,98151.59
2023-04-04T00:36:54.086Z,98153.50
2023-04-04T00:46:57.186Z,98150.25
2023-04-04T00:56:59.599Z,98148.31
2023-04-04T01:07:03.558Z,98133.87
2023-04-04T01:17:06.447Z,98132.41
2023-04-04T01:27:09.068Z,98128.19
2023-04-04T01:37:46.873Z,98134.66
2023-04-04T01:47:49.220Z,98129.62
2023-04-04T01:57:51.768Z,98124.63
2023-04-04T02:07:54.260Z,98126.16
2023-04-04T02:17:57.058Z,98126.47
2023-04-04T02:27:59.730Z,98116.97
2023-04-04T02:38:02.396Z,98115.84
2023-04-04T02:48:05.097Z,98113.03
2023-04-04T02:58:07.817Z,98107.72
2023-04-04T03:08:10.178Z,98113.84
2023-04-04T03:18:13.220Z,98119.91
2023-04-04T03:28:15.535Z,98110.44
2023-04-04T03:38:18.721Z,98118.37
2023-04-04T03:48:21.284Z,98110.16
2023-04-04T03:58:24.880Z,98103.00
2023-04-04T04:08:28.315Z,98115.84
2023-04-04T04:18:30.740Z,98114.09
2023-04-04T04:28:34.425Z,98116.50
2023-04-04T04:38:37.197Z,98123.66
2023-04-04T04:48:39.596Z,98126.44
2023-04-04T04:58:42.113Z,98134.06
2023-04-04T05:08:44.610Z,98139.94
2023-04-04T05:18:47.425Z,98137.47
2023-04-04T05:28:49.905Z,98135.69
2023-04-04T05:38:52.483Z,98153.25
2023-04-04T05:48:55.022Z,98148.19
2023-04-04T05:58:57.516Z,98166.16
2023-04-04T06:08:59.820Z,98179.06
2023-04-04T06:19:02.298Z,98185.91
2023-04-04T06:29:05.339Z,98186.66
2023-04-04T06:39:08.184Z,98187.19
2023-04-04T06:49:11.107Z,98198.44
2023-04-04T06:59:13.796Z,98197.53
2023-04-04T07:09:28.040Z,98194.37
2023-04-04T07:19:31.900Z,98183.31
2023-04-04T07:29:34.569Z,98178.41
2023-04-04T07:39:37.144Z,98182.81
2023-04-04T07:49:42.924Z,98174.28
2023-04-04T07:59:45.315Z,98177.78
2023-04-04T08:09:48.297Z,98169.72
2023-04-04T08:19:50.912Z,98178.66
2023-04-04T08:29:53.475Z,98174.63
2023-04-04T08:39:56.083Z,98173.34
2023-04-04T08:50:02.042Z,98158.00
2023-04-04T09:00:07.534Z,98170.03
2023-04-04T09:10:14.668Z,98170.94
2023-04-04T09:20:41.383Z,98175.00
2023-04-04T09:30:45.651Z,98170.22
2023-04-04T09:40:48.558Z,98157.56
2023-04-04T09:50:53.470Z,98174.09
2023-04-04T10:00:58.303Z,98172.94
2023-04-04T10:11:10.563Z,98176.66
2023-04-04T10:21:16.157Z,98181.81
2023-04-04T10:31:26.574Z,98181.28
2023-04-04T10:41:33.143Z,98178.75
2023-04-04T10:51:45.137Z,98182.88
2023-04-04T11:01:58.910Z,98178.84
2023-04-04T11:12:09.334Z,98179.59
2023-04-04T11:22:12.348Z,98162.97
2023-04-04T11:32:53.023Z,98168.97
2023-04-04T11:43:08.933Z,98150.44
2023-04-04T11:53:13.519Z,98136.66
2023-04-04T12:03:18.935Z,98140.78
2023-04-04T12:13:21.881Z,98129.00
2023-04-04T12:23:24.740Z,98127.59
2023-04-04T12:33:27.461Z,98124.03
2023-04-04T12:43:32.012Z,98114.16
2023-04-04T12:53:35.687Z,98120.94
2023-04-04T13:03:39.938Z,98121.31
2023-04-04T13:13:44.650Z,98117.22
2023-04-04T13:23:47.305Z,98115.75
2023-04-04T13:33:49.767Z,98111.69
2023-04-04T13:43:52.890Z,98099.56
2023-04-04T13:53:55.471Z,98092.25
2023-04-04T14:03:58.216Z,98104.75
2023-04-04T14:14:01.259Z,98072.75
2023-04-04T14:24:03.992Z,98077.34
2023-04-04T14:34:07.113Z,98052.91
2023-04-04T14:44:10.287Z,98056.22
2023-04-04T14:54:13.206Z,98060.28
2023-04-04T15:04:15.847Z,98057.78
2023-04-04T15:14:19.486Z,98051.09
2023-04-04T15:24:21.916Z,98049.53
2023-04-04T15:34:26.001Z,98043.47
2023-04-04T15:44:28.661Z,98042.44
2023-04-04T15:54:32.060Z,98042.41
2023-04-04T16:04:34.937Z,98043.22
2023-04-04T16:14:37.274Z,98028.41
2023-04-04T16:24:39.829Z,98033.25
2023-04-04T16:34:42.862Z,98031.66
2023-04-04T16:44:49.422Z,98040.97
2023-04-04T16:54:54.802Z,98032.28
2023-04-04T17:04:57.365Z,98031.59
2023-04-04T17:15:00.056Z,98025.38
2023-04-04T17:25:03.800Z,98031.78
2023-04-04T17:35:07.440Z,98018.78
2023-04-04T17:45:11.145Z,98014.38
2023-04-04T17:55:13.733Z,98010.97
2023-04-04T18:05:17.080Z,98017.19
2023-04-04T18:15:20.375Z,98012.19
2023-04-04T18:25:22.966Z,98023.19
2023-04-04T18:35:25.484Z,98037.34
2023-04-04T18:45:39.254Z,98058.97
2023-04-04T18:55:43.413Z,98066.31
2023-04-04T19:05:48.936Z,98074.88
2023-04-04T19:15:51.544Z,98077.03
2023-04-04T19:25:56.039Z,98088.00
2023-04-04T19:36:02.766Z,98088.75
2023-04-04T19:46:16.220Z,98091.12
2023-04-04T19:56:21.668Z,98094.44
2023-04-04T20:06:28.635Z,98100.00
2023-04-04T20:16:31.679Z,98090.53
2023-04-04T20:27:03.270Z,98094.81
2023-04-04T20:37:20.266Z,98099.94
2023-04-04T20:47:45.553Z,98109.19
2023-04-04T20:57:48.834Z,98115.56
2023-04-04T21:07:51.334Z,98121.09
2023-04-04T21:17:53.937Z,98130.53
2023-04-04T21:27:56.441Z,98129.50
2023-04-04T21:37:58.943Z,98137.47
2023-04-04T21:48:01.514Z,98138.88
2023-04-04T21:58:04.043Z,98146.31
2023-04-04T22:08:06.919Z,98143.03
2023-04-04T22:18:15.038Z,98148.00
2023-04-04T22:28:18.591Z,98141.22
2023-04-04T22:38:21.397Z,98134.50
2023-04-04T22:48:23.873Z,98141.47
2023-04-04T22:58:26.514Z,98135.66
2023-04-04T23:08:29.047Z,98132.25
2023-04-04T23:18:31.398Z,98121.03
2023-04-04T23:28:33.743Z,98114.53
2023-04-04T23:38:36.392Z,98105.50
2023-04-04T23:48:38.795Z,98102.50
2023-04-04T23:58:41.685Z,98112.09
